createdAt,value
2023-03-15T00:00:19.874Z,67.98
2023-03-15T00:03:26.113Z,67.84
2023-03-15T00:06:33.813Z,67.89
2023-03-15T00:09:39.988Z,67.84
2023-03-15T00:12:44.593Z,67.93
2023-03-15T00:15:54.142Z,67.76
2023-03-15T00:19:00.582Z,67.74
2023-03-15T00:22:07.577Z,67.71
2023-03-15T00:25:14.510Z,67.68
2023-03-15T00:28:21.174Z,67.70
2023-03-15T00:31:28.485Z,67.71
2023-03-15T00:34:35.313Z,67.66
2023-03-15T00:37:41.764Z,67.67
2023-03-15T00:40:48.077Z,67.70
2023-03-15T00:43:54.816Z,67.73
2023-03-15T00:47:01.144Z,68.03
2023-03-15T00:50:08.530Z,68.13
2023-03-15T00:53:14.926Z,68.03
2023-03-15T00:56:24.454Z,67.87
2023-03-15T00:59:35.085Z,67.92
2023-03-15T01:02:41.782Z,67.86
2023-03-15T01:05:47.697Z,67.90
2023-03-15T01:08:56.152Z,67.84
2023-03-15T01:12:02.278Z,67.76
2023-03-15T01:15:12.444Z,67.73
2023-03-15T01:18:18.283Z,67.63
2023-03-15T01:21:25.187Z,67.67
2023-03-15T01:24:31.131Z,67.48
2023-03-15T01:27:37.186Z,67.49
2023-03-15T01:30:49.895Z,67.44
2023-03-15T01:33:55.965Z,67.56
2023-03-15T01:37:03.029Z,67.60
2023-03-15T01:40:13.330Z,67.65
2023-03-15T01:43:21.869Z,67.73
2023-03-15T01:46:34.399Z,67.51
2023-03-15T01:49:40.660Z,67.56
2023-03-15T01:52:47.083Z,67.55
2023-03-15T01:55:54.377Z,67.62
2023-03-15T01:59:02.745Z,67.77
2023-03-15T02:02:09.963Z,67.64
2023-03-15T02:05:20.465Z,67.73
2023-03-15T02:08:33.644Z,67.71
2023-03-15T02:11:39.727Z,67.85
2023-03-15T02:14:46.381Z,67.83
2023-03-15T02:17:52.701Z,67.77
2023-03-15T02:21:03.138Z,67.89
2023-03-15T02:24:22.846Z,67.87
2023-03-15T02:27:32.048Z,67.84
2023-03-15T02:30:38.251Z,67.96
2023-03-15T02:33:47.224Z,67.92
2023-03-15T02:36:54.218Z,67.97
2023-03-15T02:39:59.974Z,67.97
2023-03-15T02:43:12.719Z,68.03
2023-03-15T02:46:19.509Z,68.16
2023-03-15T02:49:29.272Z,68.02
2023-03-15T02:52:35.226Z,67.96
2023-03-15T02:55:41.257Z,67.93
2023-03-15T02:58:47.113Z,67.99
2023-03-15T03:01:53.071Z,67.84
2023-03-15T03:04:58.928Z,67.76
2023-03-15T03:08:04.884Z,67.66
2023-03-15T03:11:10.744Z,67.72
2023-03-15T03:14:16.609Z,67.79
2023-03-15T03:17:22.494Z,67.74
2023-03-15T03:20:28.420Z,67.67
2023-03-15T03:23:35.293Z,67.78
2023-03-15T03:26:41.151Z,67.88
2023-03-15T03:29:47.215Z,67.76
2023-03-15T03:32:53.628Z,67.77
2023-03-15T03:36:04.234Z,67.79
2023-03-15T03:39:10.178Z,67.89
2023-03-15T03:42:16.794Z,67.79
2023-03-15T03:45:22.640Z,67.88
2023-03-15T03:48:28.476Z,67.94
2023-03-15T03:51:35.372Z,67.89
2023-03-15T03:54:42.820Z,67.66
2023-03-15T03:57:48.590Z,67.75
2023-03-15T04:00:55.425Z,67.87
2023-03-15T04:04:01.261Z,67.88
2023-03-15T04:07:07.322Z,67.72
2023-03-15T04:10:15.888Z,67.67
2023-03-15T04:13:22.146Z,67.92
2023-03-15T04:16:27.980Z,67.90
2023-03-15T04:19:34.051Z,67.88
2023-03-15T04:22:39.981Z,67.94
2023-03-15T04:25:49.291Z,68.01
2023-03-15T04:28:56.091Z,67.94
2023-03-15T04:32:02.599Z,67.81
2023-03-15T04:35:09.972Z,68.02
2023-03-15T04:38:16.139Z,68.07
2023-03-15T04:41:22.057Z,67.75
2023-03-15T04:44:27.956Z,67.74
2023-03-15T04:47:33.716Z,67.87
2023-03-15T04:50:39.562Z,67.95
2023-03-15T04:53:45.459Z,68.01
2023-03-15T04:56:51.183Z,67.96
2023-03-15T04:59:57.749Z,67.82
2023-03-15T05:03:03.608Z,67.80
2023-03-15T05:06:09.743Z,67.88
2023-03-15T05:09:19.320Z,67.94
2023-03-15T05:12:25.684Z,68.07
2023-03-15T05:15:31.571Z,68.03
2023-03-15T05:18:37.496Z,67.96
2023-03-15T05:21:43.286Z,68.05
2023-03-15T05:24:49.098Z,68.13
2023-03-15T05:27:56.487Z,68.31
2023-03-15T05:31:03.481Z,68.21
2023-03-15T05:34:09.335Z,68.27
2023-03-15T05:37:15.118Z,68.33
2023-03-15T05:40:21.455Z,68.24
2023-03-15T05:43:25.784Z,68.24
2023-03-15T05:46:32.020Z,68.24
2023-03-15T05:49:38.210Z,68.30
2023-03-15T05:52:44.906Z,68.47
2023-03-15T05:55:50.632Z,68.47
2023-03-15T05:58:56.370Z,68.39
2023-03-15T06:02:02.101Z,68.26
2023-03-15T06:05:09.067Z,68.36
2023-03-15T06:08:14.888Z,68.33
2023-03-15T06:11:21.015Z,68.28
2023-03-15T06:14:27.007Z,68.39
2023-03-15T06:17:33.377Z,68.32
2023-03-15T06:20:37.952Z,68.25
2023-03-15T06:23:43.758Z,68.20
2023-03-15T06:26:49.616Z,68.24
2023-03-15T06:29:56.289Z,68.22
2023-03-15T06:33:02.925Z,68.08
2023-03-15T06:36:10.661Z,68.12
2023-03-15T06:39:16.770Z,68.22
2023-03-15T06:42:22.892Z,68.12
2023-03-15T06:45:30.632Z,67.88
2023-03-15T06:48:36.624Z,68.20
2023-03-15T06:51:45.231Z,68.10
2023-03-15T06:54:50.955Z,67.99
2023-03-15T06:57:56.782Z,67.86
2023-03-15T07:01:02.639Z,67.71
2023-03-15T07:04:09.648Z,67.69
2023-03-15T07:07:16.212Z,67.49
2023-03-15T07:10:22.475Z,67.32
2023-03-15T07:13:28.428Z,67.35
2023-03-15T07:16:34.210Z,67.23
2023-03-15T07:19:50.248Z,67.23
2023-03-15T07:23:01.563Z,67.27
2023-03-15T07:26:07.613Z,67.12
2023-03-15T07:29:13.681Z,66.98
2023-03-15T07:32:19.964Z,66.92
2023-03-15T07:35:24.316Z,66.86
2023-03-15T07:38:31.230Z,66.96
2023-03-15T07:41:37.008Z,66.96
2023-03-15T07:44:42.764Z,66.88
2023-03-15T07:47:48.721Z,66.81
2023-03-15T07:50:54.489Z,66.78
2023-03-15T07:54:00.440Z,66.79
2023-03-15T07:57:07.111Z,66.67
2023-03-15T08:00:15.300Z,66.84
2023-03-15T08:03:21.456Z,67.00
2023-03-15T08:06:27.340Z,67.08
2023-03-15T08:09:34.652Z,67.02
2023-03-15T08:12:43.024Z,67.03
2023-03-15T08:15:49.626Z,66.88
2023-03-15T08:18:55.477Z,66.96
2023-03-15T08:22:01.437Z,66.99
2023-03-15T08:25:09.450Z,67.02
2023-03-15T08:28:15.729Z,67.04
2023-03-15T08:31:21.760Z,67.08
2023-03-15T08:34:27.753Z,67.07
2023-03-15T08:37:33.488Z,67.00
2023-03-15T08:40:40.786Z,67.09
2023-03-15T08:43:46.734Z,67.04
2023-03-15T08:46:52.566Z,66.88
2023-03-15T08:49:58.450Z,66.51
2023-03-15T08:53:04.229Z,66.48
2023-03-15T08:56:10.729Z,66.25
2023-03-15T08:59:28.951Z,66.43
2023-03-15T09:02:37.671Z,66.35
2023-03-15T09:05:43.806Z,66.17
2023-03-15T09:08:49.654Z,66.06
2023-03-15T09:11:56.750Z,65.94
2023-03-15T09:15:02.605Z,65.84
2023-03-15T09:18:08.793Z,65.72
2023-03-15T09:21:14.623Z,65.77
2023-03-15T09:24:20.486Z,65.67
2023-03-15T09:27:26.443Z,65.48
2023-03-15T09:30:32.453Z,65.41
2023-03-15T09:33:38.359Z,65.38
2023-03-15T09:36:44.220Z,65.43
2023-03-15T09:39:50.081Z,65.21
2023-03-15T09:43:05.478Z,65.19
2023-03-15T09:46:25.462Z,64.98
2023-03-15T09:49:40.725Z,64.87
2023-03-15T09:52:50.372Z,64.79
2023-03-15T09:55:56.458Z,64.59
2023-03-15T09:59:03.462Z,64.50
2023-03-15T10:02:20.806Z,64.40
2023-03-15T10:05:36.318Z,64.44
2023-03-15T10:08:42.309Z,64.24
2023-03-15T10:11:58.592Z,64.21
2023-03-15T10:15:23.899Z,64.07
2023-03-15T10:18:40.203Z,64.00
2023-03-15T10:21:56.703Z,63.94
2023-03-15T10:25:06.493Z,64.01
2023-03-15T10:28:18.942Z,63.84
2023-03-15T10:31:41.037Z,63.87
2023-03-15T10:34:52.869Z,63.97
2023-03-15T10:37:58.984Z,63.70
2023-03-15T10:41:08.846Z,63.45
2023-03-15T10:44:19.615Z,63.38
2023-03-15T10:47:27.678Z,63.33
2023-03-15T10:50:35.319Z,63.35
2023-03-15T10:53:53.149Z,63.18
2023-03-15T10:57:03.821Z,63.06
2023-03-15T11:04:08.071Z,62.94
2023-03-15T11:07:14.413Z,62.89
2023-03-15T11:10:26.084Z,62.83
2023-03-15T11:13:33.927Z,62.41
2023-03-15T11:16:40.885Z,62.52
2023-03-15T11:19:53.103Z,62.42
2023-03-15T11:23:00.133Z,61.96
2023-03-15T11:26:06.367Z,61.85
2023-03-15T11:29:21.629Z,61.84
2023-03-15T11:32:31.101Z,61.87
2023-03-15T11:35:44.500Z,61.72
2023-03-15T11:38:54.164Z,61.47
2023-03-15T11:42:06.825Z,61.35
2023-03-15T11:45:19.373Z,61.11
2023-03-15T11:48:31.173Z,60.95
2023-03-15T11:51:38.672Z,60.74
2023-03-15T11:54:45.184Z,60.73
2023-03-15T11:57:52.238Z,60.52
2023-03-15T12:01:04.757Z,60.50
2023-03-15T12:04:51.001Z,60.40
2023-03-15T12:08:20.254Z,60.33
2023-03-15T12:11:45.452Z,60.24
2023-03-15T12:15:02.598Z,60.28
2023-03-15T12:18:14.938Z,60.09
2023-03-15T12:21:33.129Z,59.90
2023-03-15T12:24:41.076Z,59.66
2023-03-15T12:27:51.486Z,59.33
2023-03-15T12:31:02.077Z,59.75
2023-03-15T12:34:15.742Z,59.60
2023-03-15T12:37:25.610Z,59.22
2023-03-15T12:40:50.352Z,59.19
2023-03-15T12:44:16.172Z,58.91
2023-03-15T12:47:20.409Z,58.96
2023-03-15T12:50:52.540Z,58.91
2023-03-15T12:54:00.264Z,58.72
2023-03-15T12:57:07.327Z,58.72
2023-03-15T13:00:20.613Z,58.50
2023-03-15T13:03:28.744Z,58.33
2023-03-15T13:06:47.248Z,58.10
2023-03-15T13:10:09.385Z,58.10
2023-03-15T13:13:26.709Z,57.96
2023-03-15T13:16:39.141Z,58.02
2023-03-15T13:19:48.462Z,57.67
2023-03-15T13:23:04.862Z,57.56
2023-03-15T13:26:26.558Z,57.57
2023-03-15T13:29:34.303Z,57.36
2023-03-15T13:32:46.357Z,57.27
2023-03-15T13:35:58.339Z,57.18
2023-03-15T13:39:11.427Z,57.06
2023-03-15T13:42:23.968Z,56.87
2023-03-15T13:45:29.790Z,56.74
2023-03-15T13:48:37.560Z,56.75
2023-03-15T13:51:44.514Z,56.91
2023-03-15T13:54:53.317Z,56.77
2023-03-15T13:58:06.126Z,56.64
2023-03-15T14:01:15.579Z,56.38
2023-03-15T14:04:21.934Z,56.48
2023-03-15T14:07:30.802Z,56.57
2023-03-15T14:10:39.103Z,56.34
2023-03-15T14:13:56.084Z,56.02
2023-03-15T14:17:08.745Z,55.80
2023-03-15T14:20:19.860Z,55.95
2023-03-15T14:23:28.290Z,55.99
2023-03-15T14:26:34.454Z,56.06
2023-03-15T14:29:40.101Z,55.87
2023-03-15T14:32:55.705Z,55.87
2023-03-15T14:36:03.735Z,55.75
2023-03-15T14:39:20.927Z,55.62
2023-03-15T14:42:26.798Z,55.51
2023-03-15T14:45:34.406Z,55.76
2023-03-15T14:48:40.865Z,55.69
2023-03-15T14:51:47.465Z,55.53
2023-03-15T14:54:51.959Z,55.72
2023-03-15T14:57:57.919Z,55.52
2023-03-15T15:01:05.518Z,55.66
2023-03-15T15:04:13.531Z,55.36
2023-03-15T15:07:20.747Z,55.25
2023-03-15T15:10:27.288Z,54.92
2023-03-15T15:13:33.555Z,55.02
2023-03-15T15:16:57.514Z,55.08
2023-03-15T15:20:07.367Z,54.95
2023-03-15T15:23:17.128Z,55.06
2023-03-15T15:26:26.629Z,54.92
2023-03-15T15:29:32.441Z,54.99
2023-03-15T15:32:38.199Z,54.81
2023-03-15T15:35:44.580Z,54.64
2023-03-15T15:38:48.971Z,54.84
2023-03-15T15:41:53.164Z,54.84
2023-03-15T15:44:57.435Z,54.74
2023-03-15T15:48:05.939Z,54.61
2023-03-15T15:51:19.864Z,54.63
2023-03-15T15:54:26.340Z,54.39
2023-03-15T15:57:30.488Z,54.46
2023-03-15T16:00:34.785Z,54.49
2023-03-15T16:03:39.203Z,54.39
2023-03-15T16:06:43.960Z,54.47
2023-03-15T16:09:49.103Z,54.50
2023-03-15T16:12:54.634Z,54.49
2023-03-15T16:15:58.786Z,54.49
2023-03-15T16:19:03.364Z,54.52
2023-03-15T16:22:08.270Z,54.44
2023-03-15T16:25:15.921Z,54.51
2023-03-15T16:28:20.149Z,54.49
2023-03-15T16:31:24.474Z,54.33
2023-03-15T16:34:28.685Z,54.48
2023-03-15T16:37:33.320Z,54.40
2023-03-15T16:40:40.605Z,54.39
2023-03-15T16:43:47.255Z,54.49
2023-03-15T16:46:52.967Z,54.51
2023-03-15T16:49:57.429Z,54.42
2023-03-15T16:53:03.714Z,54.45
2023-03-15T16:56:11.060Z,54.50
2023-03-15T16:59:17.159Z,54.35
2023-03-15T17:02:22.536Z,54.55
2023-03-15T17:05:27.929Z,54.53
2023-03-15T17:08:32.931Z,54.50
2023-03-15T17:11:38.726Z,54.65
2023-03-15T17:14:43.324Z,54.65
2023-03-15T17:17:47.910Z,54.69
2023-03-15T17:20:52.663Z,54.57
2023-03-15T17:23:56.838Z,54.52
2023-03-15T17:27:02.175Z,54.64
2023-03-15T17:30:16.339Z,54.76
2023-03-15T17:33:20.865Z,54.72
2023-03-15T17:36:26.821Z,54.65
2023-03-15T17:39:31.443Z,54.92
2023-03-15T17:42:35.932Z,54.78
2023-03-15T17:45:40.355Z,54.82
2023-03-15T17:48:45.019Z,54.92
2023-03-15T17:51:49.433Z,54.88
2023-03-15T17:54:53.753Z,55.07
2023-03-15T17:57:58.591Z,54.96
2023-03-15T18:01:04.526Z,55.07
2023-03-15T18:04:11.347Z,55.10
2023-03-15T18:07:15.763Z,55.29
2023-03-15T18:10:21.162Z,55.29
2023-03-15T18:13:26.576Z,55.25
2023-03-15T18:16:31.847Z,55.27
2023-03-15T18:19:36.777Z,55.50
2023-03-15T18:22:41.764Z,55.58
2023-03-15T18:25:48.251Z,55.41
2023-03-15T18:28:53.166Z,55.46
2023-03-15T18:31:57.589Z,55.75
2023-03-15T18:35:01.811Z,55.73
2023-03-15T18:38:06.454Z,55.63
2023-03-15T18:41:14.115Z,55.71
2023-03-15T18:44:18.463Z,55.70
2023-03-15T18:47:23.084Z,55.85
2023-03-15T18:50:27.503Z,55.79
2023-03-15T18:53:31.929Z,55.91
2023-03-15T18:56:36.477Z,55.92
2023-03-15T18:59:41.393Z,56.02
2023-03-15T19:02:47.196Z,55.94
2023-03-15T19:05:51.573Z,56.13
2023-03-15T19:08:55.671Z,56.13
2023-03-15T19:12:00.184Z,56.15
2023-03-15T19:15:05.783Z,56.08
2023-03-15T19:18:10.080Z,56.44
2023-03-15T19:21:14.540Z,56.48
2023-03-15T19:24:18.840Z,56.60
2023-03-15T19:27:23.147Z,56.78
2023-03-15T19:30:27.700Z,56.81
2023-03-15T19:33:31.993Z,56.88
2023-03-15T19:36:36.116Z,56.97
2023-03-15T19:39:40.466Z,57.08
2023-03-15T19:42:44.737Z,57.17
2023-03-15T19:45:49.224Z,57.07
2023-03-15T19:48:53.492Z,57.32
2023-03-15T19:51:57.913Z,57.13
2023-03-15T19:55:02.237Z,57.19
2023-03-15T19:58:06.455Z,57.40
2023-03-15T20:01:11.525Z,57.42
2023-03-15T20:04:15.954Z,57.43
2023-03-15T20:07:20.174Z,57.47
2023-03-15T20:10:24.636Z,57.69
2023-03-15T20:13:29.081Z,57.73
2023-03-15T20:16:33.707Z,57.85
2023-03-15T20:19:38.247Z,58.08
2023-03-15T20:22:43.499Z,58.06
2023-03-15T20:25:49.690Z,58.18
2023-03-15T20:28:53.825Z,58.33
2023-03-15T20:31:58.145Z,58.36
2023-03-15T20:35:02.626Z,58.30
2023-03-15T20:38:08.330Z,58.34
2023-03-15T20:41:13.981Z,58.40
2023-03-15T20:44:18.095Z,58.42
2023-03-15T20:47:22.202Z,58.59
2023-03-15T20:50:26.463Z,58.58
2023-03-15T20:53:31.192Z,58.76
2023-03-15T20:56:35.511Z,58.84
2023-03-15T20:59:39.939Z,58.90
2023-03-15T21:02:44.155Z,59.08
2023-03-15T21:05:48.472Z,59.21
2023-03-15T21:08:52.699Z,59.18
2023-03-15T21:11:57.319Z,59.23
2023-03-15T21:15:02.499Z,59.31
2023-03-15T21:18:07.113Z,59.32
2023-03-15T21:21:11.392Z,59.39
2023-03-15T21:24:15.824Z,59.57
2023-03-15T21:27:20.414Z,59.77
2023-03-15T21:30:25.106Z,59.62
2023-03-15T21:33:31.059Z,59.74
2023-03-15T21:36:35.252Z,59.80
2023-03-15T21:39:39.469Z,59.77
2023-03-15T21:42:43.800Z,59.94
2023-03-15T21:45:48.141Z,60.07
2023-03-15T21:48:52.322Z,60.30
2023-03-15T21:51:56.545Z,60.28
2023-03-15T21:55:01.195Z,60.31
2023-03-15T21:58:05.883Z,60.43
2023-03-15T22:01:10.145Z,60.37
2023-03-15T22:04:14.357Z,60.49
2023-03-15T22:07:18.584Z,60.64
2023-03-15T22:10:23.447Z,60.65
2023-03-15T22:13:27.770Z,60.59
2023-03-15T22:16:33.438Z,60.70
2023-03-15T22:19:37.935Z,60.86
2023-03-15T22:22:42.051Z,60.99
2023-03-15T22:25:46.530Z,60.96
2023-03-15T22:28:51.679Z,60.95
2023-03-15T22:31:56.004Z,61.10
2023-03-15T22:35:00.223Z,61.07
2023-03-15T22:38:10.218Z,61.11
2023-03-15T22:41:14.899Z,61.37
2023-03-15T22:44:19.118Z,61.38
2023-03-15T22:47:23.466Z,61.52
2023-03-15T22:50:28.046Z,61.51
2023-03-15T22:53:32.499Z,61.58
2023-03-15T22:56:39.952Z,61.53
2023-03-15T22:59:45.536Z,61.60
2023-03-15T23:02:50.170Z,61.66
2023-03-15T23:05:54.726Z,61.69
2023-03-15T23:08:58.911Z,61.55
2023-03-15T23:12:03.130Z,61.59
2023-03-15T23:15:08.829Z,61.59
2023-03-15T23:18:14.763Z,61.47
2023-03-15T23:21:19.180Z,61.53
2023-03-15T23:24:24.751Z,61.63
2023-03-15T23:27:28.944Z,61.54
2023-03-15T23:30:35.745Z,61.46
2023-03-15T23:33:40.445Z,61.52
2023-03-15T23:36:45.414Z,61.66
2023-03-15T23:39:49.699Z,61.69
2023-03-15T23:42:59.136Z,61.76
2023-03-15T23:46:05.271Z,61.88
2023-03-15T23:49:10.598Z,61.85
2023-03-15T23:52:15.382Z,61.79
2023-03-15T23:55:20.010Z,61.95
2023-03-15T23:58:24.540Z,61.86
